createdAt,value
2019-03-05T00:03:31.360Z,2.07
2019-03-05T00:07:43.455Z,3.80
2019-03-05T00:11:50.155Z,2.70
2019-03-05T00:15:58.221Z,3.63
2019-03-05T00:20:06.208Z,5.83
2019-03-05T00:24:51.609Z,5.13
2019-03-05T00:29:15.051Z,4.33
2019-03-05T00:33:26.139Z,5.57
2019-03-05T00:37:35.282Z,3.33
2019-03-05T00:41:57.055Z,4.90
2019-03-05T00:46:33.613Z,3.43
2019-03-05T00:51:25.039Z,4.70
2019-03-05T00:56:00.237Z,6.40
2019-03-05T01:00:31.493Z,4.83
2019-03-05T01:04:40.153Z,6.37
2019-03-05T01:08:46.779Z,7.73
2019-03-05T01:12:53.194Z,5.90
2019-03-05T01:17:03.837Z,8.53
2019-03-05T01:21:10.351Z,10.57
2019-03-05T01:25:39.552Z,6.27
2019-03-05T01:29:46.052Z,8.70
2019-03-05T01:34:12.181Z,13.67
2019-03-05T01:38:19.487Z,11.17
2019-03-05T01:42:25.875Z,7.27
2019-03-05T01:46:32.848Z,6.23
2019-03-05T01:50:43.322Z,6.37
2019-03-05T01:54:50.205Z,6.47
2019-03-05T01:59:00.955Z,5.47
2019-03-05T02:03:08.011Z,12.43
2019-03-05T02:07:15.093Z,8.80
2019-03-05T02:11:42.890Z,7.30
2019-03-05T02:15:49.366Z,6.37
2019-03-05T02:19:56.001Z,6.00
2019-03-05T02:24:21.215Z,7.47
2019-03-05T02:28:42.197Z,9.00
2019-03-05T02:33:19.885Z,7.93
2019-03-05T02:37:40.829Z,8.27
2019-03-05T02:42:00.179Z,9.30
2019-03-05T02:46:20.576Z,5.50
2019-03-05T02:51:00.253Z,11.67
2019-03-05T02:55:36.666Z,12.90
2019-03-05T02:59:44.294Z,6.57
2019-03-05T03:03:55.079Z,6.63
2019-03-05T03:08:22.991Z,5.87
2019-03-05T03:12:29.519Z,10.97
2019-03-05T03:20:46.620Z,10.13
2019-03-05T03:24:52.985Z,10.43
2019-03-05T03:29:19.171Z,11.40
2019-03-05T03:33:27.266Z,12.77
2019-03-05T03:37:37.108Z,10.10
2019-03-05T03:41:43.932Z,8.10
2019-03-05T03:45:52.894Z,15.70
2019-03-05T03:50:00.911Z,10.47
2019-03-05T03:58:14.442Z,9.60
2019-03-05T04:02:20.871Z,15.90
2019-03-05T04:06:30.475Z,14.67
2019-03-05T04:10:39.105Z,13.63
2019-03-05T04:14:47.009Z,13.80
2019-03-05T04:18:53.374Z,10.30
2019-03-05T04:23:01.234Z,11.43
2019-03-05T04:27:10.005Z,15.47
2019-03-05T04:31:16.390Z,12.33
2019-03-05T04:35:24.107Z,11.43
2019-03-05T04:39:32.541Z,17.63
2019-03-05T04:43:38.994Z,14.03
2019-03-05T04:47:45.486Z,7.83
2019-03-05T04:51:55.486Z,9.03
2019-03-05T04:56:05.404Z,13.37
2019-03-05T05:00:14.645Z,20.90
2019-03-05T05:04:21.090Z,17.30
2019-03-05T05:08:30.162Z,19.60
2019-03-05T05:12:37.977Z,16.87
2019-03-05T05:16:45.223Z,14.47
2019-03-05T05:20:52.253Z,15.50
2019-03-05T05:24:58.791Z,16.30
2019-03-05T05:29:06.027Z,14.90
2019-03-05T05:33:12.526Z,20.83
2019-03-05T05:37:18.876Z,14.23
2019-03-05T05:41:25.708Z,13.80
2019-03-05T05:45:45.700Z,14.03
2019-03-05T05:49:52.211Z,15.77
2019-03-05T05:53:58.671Z,19.27
2019-03-05T05:58:06.025Z,15.07
2019-03-05T06:02:12.820Z,21.07
2019-03-05T06:06:19.163Z,16.90
2019-03-05T06:10:27.283Z,22.20
2019-03-05T06:14:36.773Z,17.83
2019-03-05T06:18:45.354Z,16.77
2019-03-05T06:22:51.746Z,14.17
2019-03-05T06:26:59.405Z,15.17
2019-03-05T06:31:08.095Z,22.40
2019-03-05T06:35:14.584Z,17.40
2019-03-05T06:39:24.705Z,25.70
2019-03-05T06:43:31.076Z,24.00
2019-03-05T06:47:37.408Z,21.97
2019-03-05T06:51:47.653Z,20.53
2019-03-05T06:55:53.930Z,19.07
2019-03-05T07:00:00.792Z,17.77
2019-03-05T07:04:07.336Z,24.37
2019-03-05T07:08:16.702Z,22.30
2019-03-05T07:12:58.812Z,22.17
2019-03-05T07:17:26.951Z,23.83
2019-03-05T07:22:05.845Z,16.47
2019-03-05T07:26:13.145Z,18.60
2019-03-05T07:30:21.349Z,20.63
2019-03-05T07:34:30.616Z,18.23
2019-03-05T07:38:38.217Z,12.80
2019-03-05T07:42:49.440Z,24.27
2019-03-05T07:46:57.485Z,11.27
2019-03-05T07:51:05.539Z,13.63
2019-03-05T07:55:15.209Z,16.93
2019-03-05T07:59:26.230Z,20.33
2019-03-05T08:03:32.599Z,13.13
2019-03-05T08:07:39.425Z,16.87
2019-03-05T08:12:09.115Z,14.67
2019-03-05T08:16:31.300Z,14.33
2019-03-05T08:20:37.749Z,12.63
2019-03-05T08:24:44.209Z,9.77
2019-03-05T08:28:50.767Z,12.17
2019-03-05T08:32:57.936Z,15.30
2019-03-05T08:37:06.657Z,12.00
2019-03-05T08:41:18.189Z,16.10
2019-03-05T08:45:29.574Z,5.70
2019-03-05T08:49:36.820Z,13.80
2019-03-05T08:53:49.529Z,7.37
2019-03-05T08:57:52.906Z,19.50
2019-03-05T09:01:59.592Z,16.60
2019-03-05T09:06:08.922Z,7.93
2019-03-05T09:20:34.472Z,7.30
2019-03-05T09:24:43.852Z,10.97
2019-03-05T09:29:01.424Z,10.50
2019-03-05T09:33:03.007Z,7.57
2019-03-05T09:37:14.213Z,10.37
2019-03-05T09:41:24.028Z,8.20
2019-03-05T09:49:41.450Z,11.87
2019-03-05T09:53:52.094Z,14.87
2019-03-05T09:57:54.179Z,13.73
2019-03-05T10:02:03.731Z,12.20
2019-03-05T10:06:14.393Z,5.80
2019-03-05T10:10:23.880Z,12.57
2019-03-05T10:18:39.918Z,16.53
2019-03-05T10:22:47.829Z,14.07
2019-03-05T10:26:59.545Z,13.20
2019-03-05T10:31:08.173Z,21.47
2019-03-05T10:35:27.594Z,16.80
2019-03-05T10:39:36.992Z,11.97
2019-03-05T10:43:46.940Z,11.90
2019-03-05T10:47:57.093Z,21.03
2019-03-05T10:52:10.669Z,13.37
2019-03-05T10:56:21.136Z,9.30
2019-03-05T11:00:31.925Z,12.40
2019-03-05T11:04:45.739Z,11.53
2019-03-05T11:26:22.496Z,9.80
2019-03-05T11:30:36.046Z,12.17
2019-03-05T11:34:38.325Z,10.30
2019-03-05T11:38:44.698Z,10.60
2019-03-05T11:42:53.024Z,15.67
2019-03-05T11:47:01.080Z,7.27
2019-03-05T11:51:07.625Z,9.33
2019-03-05T11:55:23.347Z,11.63
2019-03-05T11:59:32.531Z,13.30
2019-03-05T12:03:46.386Z,25.40
2019-03-05T12:07:53.078Z,13.90
2019-03-05T12:11:59.614Z,9.20
2019-03-05T12:16:10.087Z,13.67
2019-03-05T12:20:19.515Z,15.97
2019-03-05T12:24:27.292Z,15.77
2019-03-05T12:28:34.524Z,12.23
2019-03-05T12:32:47.126Z,11.93
2019-03-05T12:36:53.115Z,16.27
2019-03-05T12:41:00.587Z,14.57
2019-03-05T12:45:14.337Z,14.23
2019-03-05T12:49:21.327Z,18.20
2019-03-05T12:53:28.836Z,21.10
2019-03-05T12:57:54.956Z,22.57
2019-03-05T13:02:06.159Z,16.20
2019-03-05T13:06:17.951Z,17.30
2019-03-05T13:18:59.094Z,23.03
2019-03-05T13:23:09.519Z,24.63
2019-03-05T13:27:22.863Z,20.20
2019-03-05T13:31:30.662Z,21.47
2019-03-05T13:35:38.607Z,21.83
2019-03-05T13:43:52.166Z,17.93
2019-03-05T13:48:14.848Z,20.23
2019-03-05T13:52:41.387Z,15.33
2019-03-05T13:57:00.334Z,15.17
2019-03-05T14:01:09.492Z,11.90
2019-03-05T14:05:35.510Z,14.03
2019-03-05T14:09:40.500Z,9.47
2019-03-05T14:17:59.727Z,15.40
2019-03-05T14:22:08.561Z,10.03
2019-03-05T14:26:16.057Z,14.03
2019-03-05T14:30:23.092Z,15.20
2019-03-05T14:34:35.164Z,17.57
2019-03-05T14:38:42.182Z,15.10
2019-03-05T14:42:54.852Z,10.43
2019-03-05T14:47:04.140Z,15.47
2019-03-05T14:55:42.608Z,13.07
2019-03-05T14:59:54.382Z,13.33
2019-03-05T15:04:03.608Z,7.00
2019-03-05T15:08:10.774Z,13.67
2019-03-05T15:12:23.475Z,21.53
2019-03-05T15:16:29.940Z,11.07
2019-03-05T15:20:39.206Z,12.40
2019-03-05T15:24:50.434Z,19.00
2019-03-05T15:29:01.113Z,12.87
2019-03-05T15:33:08.724Z,13.30
2019-03-05T15:37:16.780Z,13.30
2019-03-05T15:41:27.071Z,14.73
2019-03-05T15:45:33.510Z,23.67
2019-03-05T15:49:42.280Z,18.20
2019-03-05T16:02:45.428Z,10.63
2019-03-05T16:06:51.888Z,10.10
2019-03-05T16:10:58.888Z,13.57
2019-03-05T16:15:08.977Z,9.67
2019-03-05T16:23:24.003Z,9.20
2019-03-05T16:27:51.364Z,14.47
2019-03-05T16:32:09.437Z,10.40
2019-03-05T16:36:30.587Z,9.37
2019-03-05T19:04:54.778Z,18.83
2019-03-05T19:09:02.891Z,27.87
2019-03-05T19:21:47.822Z,25.67
2019-03-05T19:25:54.274Z,25.40
2019-03-05T19:30:23.556Z,26.03
2019-03-05T19:34:31.021Z,25.53
2019-03-05T19:38:42.488Z,21.73
2019-03-05T19:47:10.723Z,23.57
2019-03-05T19:51:17.938Z,20.67
2019-03-05T19:55:24.928Z,24.50
2019-03-05T19:59:31.295Z,22.17
2019-03-05T20:03:38.068Z,21.77
2019-03-05T20:07:44.762Z,19.83
2019-03-05T20:11:52.267Z,16.30
2019-03-05T20:15:59.386Z,16.30
2019-03-05T20:20:09.815Z,24.80
2019-03-05T20:24:16.568Z,26.50
2019-03-05T20:28:28.263Z,18.40
2019-03-05T20:32:35.894Z,22.70
2019-03-05T20:36:42.389Z,21.67
2019-03-05T20:40:52.948Z,24.57
2019-03-05T20:45:00.826Z,27.20
2019-03-05T20:49:10.661Z,24.77
2019-03-05T20:53:17.915Z,28.17
2019-03-05T20:57:24.761Z,19.87
2019-03-05T21:01:30.957Z,29.33
2019-03-05T21:05:39.388Z,23.43
2019-03-05T21:09:49.968Z,25.87
2019-03-05T21:13:57.555Z,23.37
2019-03-05T21:18:09.547Z,27.43
2019-03-05T21:22:17.024Z,26.80
2019-03-05T21:26:23.709Z,32.80
2019-03-05T21:30:51.076Z,30.40
2019-03-05T21:34:58.633Z,26.57
2019-03-05T21:39:09.212Z,22.70
2019-03-05T21:43:19.566Z,24.63
2019-03-05T21:47:29.682Z,13.73
2019-03-05T21:51:40.109Z,25.63
2019-03-05T22:18:29.758Z,19.10
2019-03-05T22:22:40.745Z,18.10
2019-03-05T22:31:39.047Z,19.90
2019-03-05T22:36:05.388Z,18.17
2019-03-05T22:40:17.012Z,24.87
2019-03-05T22:48:52.690Z,19.27
2019-03-05T22:53:14.597Z,19.27
2019-03-05T22:57:10.131Z,21.27
2019-03-05T23:05:59.995Z,18.37
2019-03-05T23:10:10.241Z,26.67
2019-03-05T23:14:18.344Z,23.40
2019-03-05T23:18:25.328Z,19.20
2019-03-05T23:22:34.137Z,26.13
2019-03-05T23:26:41.052Z,21.43
2019-03-05T23:30:48.681Z,20.83
2019-03-05T23:34:57.159Z,16.83
2019-03-05T23:39:05.896Z,24.40
2019-03-05T23:43:13.896Z,19.27
2019-03-05T23:47:40.056Z,23.77
2019-03-05T23:51:48.832Z,22.50
